sensor_id;sensor_type;location;lat;lon;timestamp;temperature;humidity
32769;DHT22;23049;54.304;8.826;2023-03-23T00:02:26;10.60;99.90
32769;DHT22;23049;54.304;8.826;2023-03-23T00:04:52;10.60;99.90
32769;DHT22;23049;54.304;8.826;2023-03-23T00:07:21;10.50;99.90
32769;DHT22;23049;54.304;8.826;2023-03-23T00:09:50;10.50;99.90
32769;DHT22;23049;54.304;8.826;2023-03-23T00:12:22;10.50;99.90
32769;DHT22;23049;54.304;8.826;2023-03-23T00:14:57;10.40;99.90
32769;DHT22;23049;54.304;8.826;2023-03-23T00:17:22;10.40;99.90
32769;DHT22;23049;54.304;8.826;2023-03-23T00:19:48;10.30;99.90
32769;DHT22;23049;54.304;8.826;2023-03-23T00:22:15;10.20;99.90
32769;DHT22;23049;54.304;8.826;2023-03-23T00:24:42;10.10;99.90
32769;DHT22;23049;54.304;8.826;2023-03-23T00:27:08;10.10;99.90
32769;DHT22;23049;54.304;8.826;2023-03-23T00:29:40;10.10;99.90
32769;DHT22;23049;54.304;8.826;2023-03-23T00:32:06;10.00;99.90
32769;DHT22;23049;54.304;8.826;2023-03-23T00:34:31;10.00;99.90
32769;DHT22;23049;54.304;8.826;2023-03-23T00:36:59;10.00;99.90
32769;DHT22;23049;54.304;8.826;2023-03-23T00:39:25;10.00;99.90
32769;DHT22;23049;54.304;8.826;2023-03-23T00:41:51;10.00;99.90
32769;DHT22;23049;54.304;8.826;2023-03-23T00:44:18;9.90;99.90
32769;DHT22;23049;54.304;8.826;2023-03-23T00:46:44;9.90;99.90
32769;DHT22;23049;54.304;8.826;2023-03-23T00:49:13;9.90;99.90
32769;DHT22;23049;54.304;8.826;2023-03-23T00:51:39;9.80;99.90
32769;DHT22;23049;54.304;8.826;2023-03-23T00:54:05;9.80;99.90
32769;DHT22;23049;54.304;8.826;2023-03-23T00:56:30;9.80;99.90
32769;DHT22;23049;54.304;8.826;2023-03-23T00:58:56;9.80;99.90
32769;DHT22;23049;54.304;8.826;2023-03-23T01:01:21;9.80;99.90
32769;DHT22;23049;54.304;8.826;2023-03-23T01:03:47;9.70;99.90
32769;DHT22;23049;54.304;8.826;2023-03-23T01:06:12;9.70;99.90
32769;DHT22;23049;54.304;8.826;2023-03-23T01:08:39;9.70;99.90
32769;DHT22;23049;54.304;8.826;2023-03-23T01:11:11;9.70;99.90
32769;DHT22;23049;54.304;8.826;2023-03-23T01:13:36;9.70;99.90
32769;DHT22;23049;54.304;8.826;2023-03-23T01:16:02;9.70;99.90
32769;DHT22;23049;54.304;8.826;2023-03-23T01:18:27;9.70;99.90
32769;DHT22;23049;54.304;8.826;2023-03-23T01:20:53;9.70;99.90
32769;DHT22;23049;54.304;8.826;2023-03-23T01:23:18;9.70;99.90
32769;DHT22;23049;54.304;8.826;2023-03-23T01:25:44;9.70;99.90
32769;DHT22;23049;54.304;8.826;2023-03-23T01:28:10;9.70;99.90
32769;DHT22;23049;54.304;8.826;2023-03-23T01:30:37;9.70;99.90
32769;DHT22;23049;54.304;8.826;2023-03-23T01:33:02;9.70;99.90
32769;DHT22;23049;54.304;8.826;2023-03-23T01:35:28;9.70;99.90
32769;DHT22;23049;54.304;8.826;2023-03-23T01:37:53;9.70;99.90
32769;DHT22;23049;54.304;8.826;2023-03-23T01:40:19;9.60;99.90
32769;DHT22;23049;54.304;8.826;2023-03-23T01:42:45;9.70;99.90
32769;DHT22;23049;54.304;8.826;2023-03-23T01:47:48;9.70;99.90
32769;DHT22;23049;54.304;8.826;2023-03-23T01:50:16;9.60;99.90
32769;DHT22;23049;54.304;8.826;2023-03-23T01:52:42;9.60;99.90
32769;DHT22;23049;54.304;8.826;2023-03-23T01:55:07;9.60;99.90
32769;DHT22;23049;54.304;8.826;2023-03-23T01:57:33;9.60;99.90
32769;DHT22;23049;54.304;8.826;2023-03-23T02:00:01;9.60;99.90
32769;DHT22;23049;54.304;8.826;2023-03-23T02:02:33;9.70;99.90
32769;DHT22;23049;54.304;8.826;2023-03-23T02:05:02;9.70;99.90
32769;DHT22;23049;54.304;8.826;2023-03-23T02:07:29;9.70;99.90
32769;DHT22;23049;54.304;8.826;2023-03-23T02:09:56;9.70;99.90
32769;DHT22;23049;54.304;8.826;2023-03-23T02:12:22;9.70;99.90
32769;DHT22;23049;54.304;8.826;2023-03-23T02:14:47;9.70;99.90
32769;DHT22;23049;54.304;8.826;2023-03-23T02:19:55;9.70;99.90
32769;DHT22;23049;54.304;8.826;2023-03-23T02:30:37;9.70;99.90
32769;DHT22;23049;54.304;8.826;2023-03-23T02:35:51;9.70;99.90
32769;DHT22;23049;54.304;8.826;2023-03-23T02:38:19;9.70;99.90
32769;DHT22;23049;54.304;8.826;2023-03-23T02:40:47;9.70;99.90
32769;DHT22;23049;54.304;8.826;2023-03-23T02:43:15;9.70;99.90
32769;DHT22;23049;54.304;8.826;2023-03-23T02:45:42;9.70;99.90
32769;DHT22;23049;54.304;8.826;2023-03-23T02:48:08;9.70;99.90
32769;DHT22;23049;54.304;8.826;2023-03-23T02:50:35;9.70;99.90
32769;DHT22;23049;54.304;8.826;2023-03-23T02:53:02;9.70;99.90
32769;DHT22;23049;54.304;8.826;2023-03-23T02:55:31;9.60;99.90
32769;DHT22;23049;54.304;8.826;2023-03-23T02:57:57;9.60;99.90
32769;DHT22;23049;54.304;8.826;2023-03-23T03:00:23;9.60;99.90
32769;DHT22;23049;54.304;8.826;2023-03-23T03:02:52;9.60;99.90
32769;DHT22;23049;54.304;8.826;2023-03-23T03:05:36;9.60;99.90
32769;DHT22;23049;54.304;8.826;2023-03-23T03:08:18;9.60;99.90
32769;DHT22;23049;54.304;8.826;2023-03-23T03:13:16;9.70;99.90
32769;DHT22;23049;54.304;8.826;2023-03-23T03:18:24;9.70;99.90
32769;DHT22;23049;54.304;8.826;2023-03-23T03:20:57;9.70;99.90
32769;DHT22;23049;54.304;8.826;2023-03-23T03:23:25;9.70;99.90
32769;DHT22;23049;54.304;8.826;2023-03-23T03:25:52;9.80;99.90
32769;DHT22;23049;54.304;8.826;2023-03-23T03:28:22;9.80;99.90
32769;DHT22;23049;54.304;8.826;2023-03-23T03:30:49;9.80;99.90
32769;DHT22;23049;54.304;8.826;2023-03-23T03:33:17;9.80;99.90
32769;DHT22;23049;54.304;8.826;2023-03-23T03:35:43;9.80;99.90
32769;DHT22;23049;54.304;8.826;2023-03-23T03:38:09;9.80;99.90
32769;DHT22;23049;54.304;8.826;2023-03-23T03:40:36;9.80;99.90
32769;DHT22;23049;54.304;8.826;2023-03-23T03:43:02;9.90;99.90
32769;DHT22;23049;54.304;8.826;2023-03-23T03:45:27;9.90;99.90
32769;DHT22;23049;54.304;8.826;2023-03-23T03:47:53;9.90;99.90
32769;DHT22;23049;54.304;8.826;2023-03-23T03:50:18;9.90;99.90
32769;DHT22;23049;54.304;8.826;2023-03-23T03:52:44;9.90;99.90
32769;DHT22;23049;54.304;8.826;2023-03-23T03:55:10;10.00;99.90
32769;DHT22;23049;54.304;8.826;2023-03-23T03:57:36;10.00;99.90
32769;DHT22;23049;54.304;8.826;2023-03-23T04:00:02;10.00;99.90
32769;DHT22;23049;54.304;8.826;2023-03-23T04:02:43;10.00;99.90
32769;DHT22;23049;54.304;8.826;2023-03-23T04:05:08;10.00;99.90
32769;DHT22;23049;54.304;8.826;2023-03-23T04:07:35;10.00;99.90
32769;DHT22;23049;54.304;8.826;2023-03-23T04:10:04;10.00;99.90
32769;DHT22;23049;54.304;8.826;2023-03-23T04:12:30;10.10;99.90
32769;DHT22;23049;54.304;8.826;2023-03-23T04:14:57;10.10;99.90
32769;DHT22;23049;54.304;8.826;2023-03-23T04:17:22;10.10;99.90
32769;DHT22;23049;54.304;8.826;2023-03-23T04:19:51;10.10;99.90
32769;DHT22;23049;54.304;8.826;2023-03-23T04:22:17;10.20;99.90
32769;DHT22;23049;54.304;8.826;2023-03-23T04:24:42;10.20;99.90
32769;DHT22;23049;54.304;8.826;2023-03-23T04:27:08;10.30;99.90
32769;DHT22;23049;54.304;8.826;2023-03-23T04:29:33;10.30;99.90
32769;DHT22;23049;54.304;8.826;2023-03-23T04:31:59;10.30;99.90
32769;DHT22;23049;54.304;8.826;2023-03-23T04:34:26;10.40;99.90
32769;DHT22;23049;54.304;8.826;2023-03-23T04:36:51;10.40;99.90
32769;DHT22;23049;54.304;8.826;2023-03-23T04:39:18;10.40;99.90
32769;DHT22;23049;54.304;8.826;2023-03-23T04:41:43;10.40;99.90
32769;DHT22;23049;54.304;8.826;2023-03-23T04:44:09;10.40;99.90
32769;DHT22;23049;54.304;8.826;2023-03-23T04:46:35;10.40;99.90
32769;DHT22;23049;54.304;8.826;2023-03-23T04:49:00;10.40;99.90
32769;DHT22;23049;54.304;8.826;2023-03-23T04:51:30;10.30;99.90
32769;DHT22;23049;54.304;8.826;2023-03-23T04:53:58;10.30;99.90
32769;DHT22;23049;54.304;8.826;2023-03-23T04:56:23;10.30;99.90
32769;DHT22;23049;54.304;8.826;2023-03-23T04:58:48;10.30;99.90
32769;DHT22;23049;54.304;8.826;2023-03-23T05:01:14;10.20;99.90
32769;DHT22;23049;54.304;8.826;2023-03-23T05:03:40;10.30;99.90
32769;DHT22;23049;54.304;8.826;2023-03-23T05:06:06;10.30;99.90
32769;DHT22;23049;54.304;8.826;2023-03-23T05:08:32;10.30;99.90
32769;DHT22;23049;54.304;8.826;2023-03-23T05:10:59;10.30;99.90
32769;DHT22;23049;54.304;8.826;2023-03-23T05:13:24;10.40;99.90
32769;DHT22;23049;54.304;8.826;2023-03-23T05:15:50;10.60;99.90
32769;DHT22;23049;54.304;8.826;2023-03-23T05:18:15;10.60;99.90
32769;DHT22;23049;54.304;8.826;2023-03-23T05:20:41;10.60;99.90
32769;DHT22;23049;54.304;8.826;2023-03-23T05:23:07;10.70;99.90
32769;DHT22;23049;54.304;8.826;2023-03-23T05:25:33;10.60;99.90
32769;DHT22;23049;54.304;8.826;2023-03-23T05:28:02;10.60;99.90
32769;DHT22;23049;54.304;8.826;2023-03-23T05:30:27;10.60;99.90
32769;DHT22;23049;54.304;8.826;2023-03-23T05:32:53;10.50;99.90
32769;DHT22;23049;54.304;8.826;2023-03-23T05:35:19;10.40;99.90
32769;DHT22;23049;54.304;8.826;2023-03-23T05:37:45;10.30;99.90
32769;DHT22;23049;54.304;8.826;2023-03-23T05:40:11;10.20;99.90
32769;DHT22;23049;54.304;8.826;2023-03-23T05:42:37;10.30;99.90
32769;DHT22;23049;54.304;8.826;2023-03-23T05:45:03;10.40;99.90
32769;DHT22;23049;54.304;8.826;2023-03-23T05:47:29;10.50;99.90
32769;DHT22;23049;54.304;8.826;2023-03-23T05:49:55;10.50;99.90
32769;DHT22;23049;54.304;8.826;2023-03-23T05:52:21;10.60;99.90
32769;DHT22;23049;54.304;8.826;2023-03-23T05:54:49;10.60;99.90
32769;DHT22;23049;54.304;8.826;2023-03-23T05:57:15;10.60;99.90
32769;DHT22;23049;54.304;8.826;2023-03-23T05:59:40;10.60;99.90
32769;DHT22;23049;54.304;8.826;2023-03-23T06:02:06;10.70;99.90
32769;DHT22;23049;54.304;8.826;2023-03-23T06:04:31;10.70;99.90
32769;DHT22;23049;54.304;8.826;2023-03-23T06:07:01;10.70;99.90
32769;DHT22;23049;54.304;8.826;2023-03-23T06:09:27;10.70;99.90
32769;DHT22;23049;54.304;8.826;2023-03-23T06:11:53;10.70;99.90
32769;DHT22;23049;54.304;8.826;2023-03-23T06:14:18;10.70;99.90
32769;DHT22;23049;54.304;8.826;2023-03-23T06:16:44;10.70;99.90
32769;DHT22;23049;54.304;8.826;2023-03-23T06:19:09;10.70;99.90
32769;DHT22;23049;54.304;8.826;2023-03-23T06:21:36;10.70;99.90
32769;DHT22;23049;54.304;8.826;2023-03-23T06:24:02;10.70;99.90
32769;DHT22;23049;54.304;8.826;2023-03-23T06:26:30;10.70;99.90
32769;DHT22;23049;54.304;8.826;2023-03-23T06:28:57;10.60;99.90
32769;DHT22;23049;54.304;8.826;2023-03-23T06:31:23;10.60;99.90
32769;DHT22;23049;54.304;8.826;2023-03-23T06:33:49;10.60;99.90
32769;DHT22;23049;54.304;8.826;2023-03-23T06:36:15;10.60;99.90
32769;DHT22;23049;54.304;8.826;2023-03-23T06:38:42;10.70;99.90
32769;DHT22;23049;54.304;8.826;2023-03-23T06:41:07;10.60;99.90
32769;DHT22;23049;54.304;8.826;2023-03-23T06:43:34;10.60;99.90
32769;DHT22;23049;54.304;8.826;2023-03-23T06:46:01;10.60;99.90
32769;DHT22;23049;54.304;8.826;2023-03-23T06:48:27;10.60;99.90
32769;DHT22;23049;54.304;8.826;2023-03-23T06:50:52;10.60;99.90
32769;DHT22;23049;54.304;8.826;2023-03-23T06:53:18;10.60;99.90
32769;DHT22;23049;54.304;8.826;2023-03-23T06:55:45;10.60;99.90
32769;DHT22;23049;54.304;8.826;2023-03-23T06:58:11;10.60;99.90
32769;DHT22;23049;54.304;8.826;2023-03-23T07:00:37;10.60;99.90
32769;DHT22;23049;54.304;8.826;2023-03-23T07:03:02;10.60;99.90
32769;DHT22;23049;54.304;8.826;2023-03-23T07:05:29;10.60;99.90
32769;DHT22;23049;54.304;8.826;2023-03-23T07:07:55;10.60;99.90
32769;DHT22;23049;54.304;8.826;2023-03-23T07:10:20;10.50;99.90
32769;DHT22;23049;54.304;8.826;2023-03-23T07:12:46;10.60;99.90
32769;DHT22;23049;54.304;8.826;2023-03-23T07:15:12;10.70;99.90
32769;DHT22;23049;54.304;8.826;2023-03-23T07:17:38;10.80;99.90
32769;DHT22;23049;54.304;8.826;2023-03-23T07:20:04;10.80;99.90
32769;DHT22;23049;54.304;8.826;2023-03-23T07:22:30;10.70;99.90
32769;DHT22;23049;54.304;8.826;2023-03-23T07:24:56;10.80;99.90
32769;DHT22;23049;54.304;8.826;2023-03-23T07:27:21;10.80;99.90
32769;DHT22;23049;54.304;8.826;2023-03-23T07:29:47;10.70;99.90
32769;DHT22;23049;54.304;8.826;2023-03-23T07:32:13;10.80;99.90
32769;DHT22;23049;54.304;8.826;2023-03-23T07:34:39;10.70;99.90
32769;DHT22;23049;54.304;8.826;2023-03-23T07:37:04;10.80;99.90
32769;DHT22;23049;54.304;8.826;2023-03-23T07:39:31;10.80;99.90
32769;DHT22;23049;54.304;8.826;2023-03-23T07:41:57;11.00;99.90
32769;DHT22;23049;54.304;8.826;2023-03-23T07:44:22;11.10;99.90
32769;DHT22;23049;54.304;8.826;2023-03-23T07:46:48;11.20;99.90
32769;DHT22;23049;54.304;8.826;2023-03-23T07:49:14;11.20;99.90
32769;DHT22;23049;54.304;8.826;2023-03-23T07:51:40;11.20;99.90
32769;DHT22;23049;54.304;8.826;2023-03-23T07:54:06;11.30;99.90
32769;DHT22;23049;54.304;8.826;2023-03-23T07:56:33;11.40;99.90
32769;DHT22;23049;54.304;8.826;2023-03-23T07:58:58;11.40;99.90
32769;DHT22;23049;54.304;8.826;2023-03-23T08:01:24;11.50;99.90
32769;DHT22;23049;54.304;8.826;2023-03-23T08:03:50;11.50;99.90
32769;DHT22;23049;54.304;8.826;2023-03-23T08:06:17;11.50;99.90
32769;DHT22;23049;54.304;8.826;2023-03-23T08:08:42;11.50;99.90
32769;DHT22;23049;54.304;8.826;2023-03-23T08:11:08;11.50;99.90
32769;DHT22;23049;54.304;8.826;2023-03-23T08:13:34;11.60;99.90
32769;DHT22;23049;54.304;8.826;2023-03-23T08:16:01;11.60;99.90
32769;DHT22;23049;54.304;8.826;2023-03-23T08:18:30;11.60;99.90
32769;DHT22;23049;54.304;8.826;2023-03-23T08:20:55;11.60;99.90
32769;DHT22;23049;54.304;8.826;2023-03-23T08:23:21;11.60;99.90
32769;DHT22;23049;54.304;8.826;2023-03-23T08:25:47;11.60;99.90
32769;DHT22;23049;54.304;8.826;2023-03-23T08:28:14;11.60;99.90
32769;DHT22;23049;54.304;8.826;2023-03-23T08:30:40;11.50;99.90
32769;DHT22;23049;54.304;8.826;2023-03-23T08:33:06;11.50;99.90
32769;DHT22;23049;54.304;8.826;2023-03-23T08:35:33;11.50;99.90
32769;DHT22;23049;54.304;8.826;2023-03-23T08:37:58;11.40;99.90
32769;DHT22;23049;54.304;8.826;2023-03-23T08:40:24;11.50;99.90
32769;DHT22;23049;54.304;8.826;2023-03-23T08:42:50;11.50;99.90
32769;DHT22;23049;54.304;8.826;2023-03-23T08:45:17;11.50;99.90
32769;DHT22;23049;54.304;8.826;2023-03-23T08:47:43;11.60;99.90
32769;DHT22;23049;54.304;8.826;2023-03-23T08:50:13;11.50;99.90
32769;DHT22;23049;54.304;8.826;2023-03-23T08:52:39;11.40;99.90
32769;DHT22;23049;54.304;8.826;2023-03-23T08:55:06;11.60;99.90
32769;DHT22;23049;54.304;8.826;2023-03-23T08:57:36;11.50;99.90
32769;DHT22;23049;54.304;8.826;2023-03-23T09:00:04;11.50;99.90
32769;DHT22;23049;54.304;8.826;2023-03-23T09:02:44;11.40;99.90
32769;DHT22;23049;54.304;8.826;2023-03-23T09:05:11;11.50;99.90
32769;DHT22;23049;54.304;8.826;2023-03-23T09:07:39;11.50;99.90
32769;DHT22;23049;54.304;8.826;2023-03-23T09:10:07;11.60;99.90
32769;DHT22;23049;54.304;8.826;2023-03-23T09:12:34;11.50;99.90
32769;DHT22;23049;54.304;8.826;2023-03-23T09:15:01;11.50;99.90
32769;DHT22;23049;54.304;8.826;2023-03-23T09:17:34;11.50;99.90
32769;DHT22;23049;54.304;8.826;2023-03-23T09:20:00;11.50;99.90
32769;DHT22;23049;54.304;8.826;2023-03-23T09:22:28;11.50;99.90
32769;DHT22;23049;54.304;8.826;2023-03-23T09:24:54;11.60;99.90
32769;DHT22;23049;54.304;8.826;2023-03-23T09:27:20;11.50;99.90
32769;DHT22;23049;54.304;8.826;2023-03-23T09:29:45;11.60;99.90
32769;DHT22;23049;54.304;8.826;2023-03-23T09:32:14;11.50;99.90
32769;DHT22;23049;54.304;8.826;2023-03-23T09:34:40;11.70;99.90
32769;DHT22;23049;54.304;8.826;2023-03-23T09:37:06;11.60;99.90
32769;DHT22;23049;54.304;8.826;2023-03-23T09:39:32;11.50;99.90
32769;DHT22;23049;54.304;8.826;2023-03-23T09:42:01;11.60;99.90
32769;DHT22;23049;54.304;8.826;2023-03-23T09:47:02;11.50;99.90
32769;DHT22;23049;54.304;8.826;2023-03-23T09:49:32;11.50;99.90
32769;DHT22;23049;54.304;8.826;2023-03-23T09:52:04;11.50;99.90
32769;DHT22;23049;54.304;8.826;2023-03-23T09:54:35;11.50;99.90
32769;DHT22;23049;54.304;8.826;2023-03-23T09:57:01;11.70;99.90
32769;DHT22;23049;54.304;8.826;2023-03-23T09:59:36;11.60;99.90
32769;DHT22;23049;54.304;8.826;2023-03-23T10:02:11;11.70;99.90
32769;DHT22;23049;54.304;8.826;2023-03-23T10:04:39;11.70;99.90
32769;DHT22;23049;54.304;8.826;2023-03-23T10:07:13;11.70;99.90
32769;DHT22;23049;54.304;8.826;2023-03-23T10:09:40;11.60;99.90
32769;DHT22;23049;54.304;8.826;2023-03-23T10:14:47;11.70;99.90
32769;DHT22;23049;54.304;8.826;2023-03-23T10:17:15;11.70;99.90
32769;DHT22;23049;54.304;8.826;2023-03-23T10:19:46;11.70;99.90
32769;DHT22;23049;54.304;8.826;2023-03-23T10:22:12;11.80;99.90
32769;DHT22;23049;54.304;8.826;2023-03-23T10:24:43;11.90;99.90
32769;DHT22;23049;54.304;8.826;2023-03-23T10:27:19;11.80;99.90
32769;DHT22;23049;54.304;8.826;2023-03-23T10:29:49;11.90;99.90
32769;DHT22;23049;54.304;8.826;2023-03-23T10:32:17;12.00;99.90
32769;DHT22;23049;54.304;8.826;2023-03-23T10:34:52;12.00;99.90
32769;DHT22;23049;54.304;8.826;2023-03-23T10:37:21;12.00;99.90
32769;DHT22;23049;54.304;8.826;2023-03-23T10:39:52;12.10;99.90
32769;DHT22;23049;54.304;8.826;2023-03-23T10:42:38;12.00;99.90
32769;DHT22;23049;54.304;8.826;2023-03-23T10:45:12;12.10;99.90
32769;DHT22;23049;54.304;8.826;2023-03-23T10:47:42;12.20;99.90
32769;DHT22;23049;54.304;8.826;2023-03-23T10:50:14;12.20;99.90
32769;DHT22;23049;54.304;8.826;2023-03-23T10:52:44;12.30;99.90
32769;DHT22;23049;54.304;8.826;2023-03-23T10:55:17;12.30;99.90
32769;DHT22;23049;54.304;8.826;2023-03-23T10:57:43;12.30;99.90
32769;DHT22;23049;54.304;8.826;2023-03-23T11:00:20;12.30;99.90
32769;DHT22;23049;54.304;8.826;2023-03-23T11:02:47;12.40;99.90
32769;DHT22;23049;54.304;8.826;2023-03-23T11:05:23;12.60;99.90
32769;DHT22;23049;54.304;8.826;2023-03-23T11:07:56;12.70;99.90
32769;DHT22;23049;54.304;8.826;2023-03-23T11:10:23;12.80;99.90
32769;DHT22;23049;54.304;8.826;2023-03-23T11:12:49;12.80;99.90
32769;DHT22;23049;54.304;8.826;2023-03-23T11:15:21;12.80;99.90
32769;DHT22;23049;54.304;8.826;2023-03-23T11:17:54;12.70;99.90
32769;DHT22;23049;54.304;8.826;2023-03-23T11:20:21;12.70;99.90
32769;DHT22;23049;54.304;8.826;2023-03-23T11:22:46;12.70;99.90
32769;DHT22;23049;54.304;8.826;2023-03-23T11:25:12;12.70;99.90
32769;DHT22;23049;54.304;8.826;2023-03-23T11:27:38;12.80;99.90
32769;DHT22;23049;54.304;8.826;2023-03-23T11:30:09;12.90;99.90
32769;DHT22;23049;54.304;8.826;2023-03-23T11:32:35;12.90;99.90
32769;DHT22;23049;54.304;8.826;2023-03-23T11:35:03;13.00;99.90
32769;DHT22;23049;54.304;8.826;2023-03-23T11:40:00;12.70;99.90
32769;DHT22;23049;54.304;8.826;2023-03-23T11:50:34;12.90;99.90
32769;DHT22;23049;54.304;8.826;2023-03-23T11:55:52;13.00;99.90
32769;DHT22;23049;54.304;8.826;2023-03-23T11:58:17;13.00;99.90
32769;DHT22;23049;54.304;8.826;2023-03-23T12:00:51;13.00;99.90
32769;DHT22;23049;54.304;8.826;2023-03-23T12:03:37;13.10;99.90
32769;DHT22;23049;54.304;8.826;2023-03-23T12:06:09;13.10;99.90
32769;DHT22;23049;54.304;8.826;2023-03-23T12:11:11;13.10;99.90
32769;DHT22;23049;54.304;8.826;2023-03-23T12:26:47;12.90;99.90
32769;DHT22;23049;54.304;8.826;2023-03-23T12:30:02;12.90;99.90
32769;DHT22;23049;54.304;8.826;2023-03-23T12:35:09;13.00;99.90
32769;DHT22;23049;54.304;8.826;2023-03-23T12:40:43;13.10;99.90
32769;DHT22;23049;54.304;8.826;2023-03-23T12:43:27;13.10;99.90
32769;DHT22;23049;54.304;8.826;2023-03-23T12:48:33;13.10;99.90
32769;DHT22;23049;54.304;8.826;2023-03-23T12:51:11;13.00;99.90
32769;DHT22;23049;54.304;8.826;2023-03-23T12:56:23;12.90;99.90
32769;DHT22;23049;54.304;8.826;2023-03-23T12:58:53;12.90;99.90
32769;DHT22;23049;54.304;8.826;2023-03-23T13:01:22;12.90;99.90
32769;DHT22;23049;54.304;8.826;2023-03-23T13:04:12;13.10;99.90
32769;DHT22;23049;54.304;8.826;2023-03-23T13:08:50;12.90;99.90
32769;DHT22;23049;54.304;8.826;2023-03-23T13:11:19;12.90;99.90
32769;DHT22;23049;54.304;8.826;2023-03-23T13:13:47;12.90;99.90
32769;DHT22;23049;54.304;8.826;2023-03-23T13:16:37;13.00;99.90
32769;DHT22;23049;54.304;8.826;2023-03-23T13:19:08;13.00;99.90
32769;DHT22;23049;54.304;8.826;2023-03-23T13:22:36;13.00;99.90
32769;DHT22;23049;54.304;8.826;2023-03-23T13:24:32;13.00;99.90
32769;DHT22;23049;54.304;8.826;2023-03-23T13:26:58;13.20;99.90
32769;DHT22;23049;54.304;8.826;2023-03-23T13:29:26;13.00;99.90
32769;DHT22;23049;54.304;8.826;2023-03-23T13:32:04;13.00;99.90
32769;DHT22;23049;54.304;8.826;2023-03-23T13:34:30;13.00;99.90
32769;DHT22;23049;54.304;8.826;2023-03-23T13:37:02;13.00;99.90
32769;DHT22;23049;54.304;8.826;2023-03-23T13:39:30;13.00;99.90
32769;DHT22;23049;54.304;8.826;2023-03-23T13:42:00;13.10;99.90
32769;DHT22;23049;54.304;8.826;2023-03-23T13:44:26;13.20;99.90
32769;DHT22;23049;54.304;8.826;2023-03-23T13:47:27;13.30;99.90
32769;DHT22;23049;54.304;8.826;2023-03-23T13:49:45;13.20;99.90
32769;DHT22;23049;54.304;8.826;2023-03-23T13:52:16;13.20;99.90
32769;DHT22;23049;54.304;8.826;2023-03-23T13:54:44;13.20;99.90
32769;DHT22;23049;54.304;8.826;2023-03-23T13:57:33;13.10;99.90
32769;DHT22;23049;54.304;8.826;2023-03-23T14:00:24;13.10;99.90
32769;DHT22;23049;54.304;8.826;2023-03-23T14:02:51;13.00;99.90
32769;DHT22;23049;54.304;8.826;2023-03-23T14:07:52;13.00;99.90
32769;DHT22;23049;54.304;8.826;2023-03-23T14:10:18;12.90;99.90
32769;DHT22;23049;54.304;8.826;2023-03-23T14:12:43;12.90;99.90
32769;DHT22;23049;54.304;8.826;2023-03-23T14:15:11;13.00;99.90
32769;DHT22;23049;54.304;8.826;2023-03-23T14:17:41;13.00;99.90
32769;DHT22;23049;54.304;8.826;2023-03-23T14:20:21;13.00;99.90
32769;DHT22;23049;54.304;8.826;2023-03-23T14:22:52;12.90;99.90
32769;DHT22;23049;54.304;8.826;2023-03-23T14:25:18;12.90;99.90
32769;DHT22;23049;54.304;8.826;2023-03-23T14:27:46;13.00;99.90
32769;DHT22;23049;54.304;8.826;2023-03-23T14:30:16;13.00;99.90
32769;DHT22;23049;54.304;8.826;2023-03-23T14:32:42;12.90;99.90
32769;DHT22;23049;54.304;8.826;2023-03-23T14:35:29;12.90;99.90
32769;DHT22;23049;54.304;8.826;2023-03-23T14:37:55;12.90;99.90
32769;DHT22;23049;54.304;8.826;2023-03-23T14:40:21;12.90;99.90
32769;DHT22;23049;54.304;8.826;2023-03-23T14:42:46;12.90;99.90
32769;DHT22;23049;54.304;8.826;2023-03-23T14:45:14;12.80;99.90
32769;DHT22;23049;54.304;8.826;2023-03-23T14:47:42;12.80;99.90
32769;DHT22;23049;54.304;8.826;2023-03-23T14:52:56;12.70;99.90
32769;DHT22;23049;54.304;8.826;2023-03-23T14:55:22;12.60;99.90
32769;DHT22;23049;54.304;8.826;2023-03-23T14:57:48;12.60;99.90
32769;DHT22;23049;54.304;8.826;2023-03-23T15:00:33;12.60;99.90
32769;DHT22;23049;54.304;8.826;2023-03-23T15:03:00;12.50;99.90
32769;DHT22;23049;54.304;8.826;2023-03-23T15:05:35;12.50;99.90
32769;DHT22;23049;54.304;8.826;2023-03-23T15:08:04;12.40;99.90
32769;DHT22;23049;54.304;8.826;2023-03-23T15:10:30;12.30;99.90
32769;DHT22;23049;54.304;8.826;2023-03-23T15:12:56;12.30;99.90
32769;DHT22;23049;54.304;8.826;2023-03-23T15:17:51;12.30;99.90
32769;DHT22;23049;54.304;8.826;2023-03-23T15:20:25;12.30;99.90
32769;DHT22;23049;54.304;8.826;2023-03-23T15:22:51;12.20;99.90
32769;DHT22;23049;54.304;8.826;2023-03-23T15:25:18;12.10;99.90
32769;DHT22;23049;54.304;8.826;2023-03-23T15:27:54;12.10;99.90
32769;DHT22;23049;54.304;8.826;2023-03-23T15:32:53;12.00;99.90
32769;DHT22;23049;54.304;8.826;2023-03-23T15:35:20;12.00;99.90
32769;DHT22;23049;54.304;8.826;2023-03-23T15:37:47;12.00;99.90
32769;DHT22;23049;54.304;8.826;2023-03-23T15:40:14;12.00;99.90
32769;DHT22;23049;54.304;8.826;2023-03-23T15:42:40;12.00;99.90
32769;DHT22;23049;54.304;8.826;2023-03-23T15:47:44;11.90;99.90
32769;DHT22;23049;54.304;8.826;2023-03-23T15:50:18;11.80;99.90
32769;DHT22;23049;54.304;8.826;2023-03-23T15:52:44;11.70;99.90
32769;DHT22;23049;54.304;8.826;2023-03-23T15:57:46;11.60;99.90
32769;DHT22;23049;54.304;8.826;2023-03-23T16:00:12;11.70;99.90
32769;DHT22;23049;54.304;8.826;2023-03-23T16:02:37;11.70;99.90
32769;DHT22;23049;54.304;8.826;2023-03-23T16:05:03;11.70;99.90
32769;DHT22;23049;54.304;8.826;2023-03-23T16:07:29;11.70;99.90
32769;DHT22;23049;54.304;8.826;2023-03-23T16:09:55;11.80;99.90
32769;DHT22;23049;54.304;8.826;2023-03-23T16:12:20;11.80;99.90
32769;DHT22;23049;54.304;8.826;2023-03-23T16:14:46;11.80;99.90
32769;DHT22;23049;54.304;8.826;2023-03-23T16:17:18;11.80;99.90
32769;DHT22;23049;54.304;8.826;2023-03-23T16:19:43;11.80;99.90
32769;DHT22;23049;54.304;8.826;2023-03-23T16:22:09;11.70;99.90
32769;DHT22;23049;54.304;8.826;2023-03-23T16:24:35;11.80;99.90
32769;DHT22;23049;54.304;8.826;2023-03-23T16:27:00;11.70;99.90
32769;DHT22;23049;54.304;8.826;2023-03-23T16:29:26;11.70;99.90
32769;DHT22;23049;54.304;8.826;2023-03-23T16:31:52;11.70;99.90
32769;DHT22;23049;54.304;8.826;2023-03-23T16:34:17;11.70;99.90
32769;DHT22;23049;54.304;8.826;2023-03-23T16:36:43;11.70;99.90
32769;DHT22;23049;54.304;8.826;2023-03-23T16:39:10;11.70;99.90
32769;DHT22;23049;54.304;8.826;2023-03-23T16:41:36;11.70;99.90
32769;DHT22;23049;54.304;8.826;2023-03-23T16:44:01;11.60;99.90
32769;DHT22;23049;54.304;8.826;2023-03-23T16:46:27;11.60;99.90
32769;DHT22;23049;54.304;8.826;2023-03-23T16:48:53;11.50;99.90
32769;DHT22;23049;54.304;8.826;2023-03-23T16:51:19;11.50;99.90
32769;DHT22;23049;54.304;8.826;2023-03-23T16:53:45;11.40;99.90
32769;DHT22;23049;54.304;8.826;2023-03-23T16:56:10;11.40;99.90
32769;DHT22;23049;54.304;8.826;2023-03-23T16:58:36;11.40;99.90
32769;DHT22;23049;54.304;8.826;2023-03-23T17:01:02;11.30;99.90
32769;DHT22;23049;54.304;8.826;2023-03-23T17:03:27;11.20;99.90